createdAt,value
2022-08-03T00:04:33.929Z,46.52
2022-08-03T00:09:37.232Z,46.68
2022-08-03T00:14:41.342Z,46.49
2022-08-03T00:19:44.760Z,46.53
2022-08-03T00:24:47.559Z,45.75
2022-08-03T00:30:00.113Z,46.45
2022-08-03T00:35:05.694Z,46.65
2022-08-03T00:40:13.407Z,46.05
2022-08-03T00:45:17.847Z,46.28
2022-08-03T00:50:22.854Z,45.87
2022-08-03T00:55:25.634Z,47.08
2022-08-03T01:00:29.781Z,46.95
2022-08-03T01:05:33.775Z,47.03
2022-08-03T01:10:46.988Z,47.01
2022-08-03T01:15:54.498Z,47.02
2022-08-03T01:20:57.682Z,47.28
2022-08-03T01:26:07.020Z,47.34
2022-08-03T01:31:11.717Z,45.88
2022-08-03T01:36:15.582Z,47.21
2022-08-03T01:41:19.906Z,47.23
2022-08-03T01:46:24.097Z,47.39
2022-08-03T01:52:03.584Z,47.24
2022-08-03T01:56:49.556Z,47.26
2022-08-03T02:02:16.033Z,46.98
2022-08-03T02:07:16.466Z,47.70
2022-08-03T02:12:19.335Z,47.73
2022-08-03T02:17:38.564Z,47.37
2022-08-03T02:22:44.518Z,47.48
2022-08-03T02:27:50.127Z,47.23
2022-08-03T02:32:56.610Z,46.92
2022-08-03T02:38:00.764Z,47.83
2022-08-03T02:43:06.346Z,47.81
2022-08-03T02:48:10.561Z,47.32
2022-08-03T02:53:13.651Z,47.40
2022-08-03T02:58:16.390Z,47.09
2022-08-03T03:03:20.781Z,47.40
2022-08-03T03:08:26.890Z,47.98
2022-08-03T03:13:31.905Z,47.07
2022-08-03T03:18:36.166Z,47.65
2022-08-03T03:23:39.847Z,47.85
2022-08-03T03:28:42.663Z,47.93
2022-08-03T03:33:46.734Z,47.53
2022-08-03T03:38:49.469Z,47.90
2022-08-03T03:43:56.637Z,47.56
2022-08-03T03:49:00.922Z,47.66
2022-08-03T03:54:04.520Z,47.83
2022-08-03T03:59:07.229Z,48.49
2022-08-03T04:04:28.817Z,48.63
2022-08-03T04:09:49.261Z,48.37
2022-08-03T04:14:51.985Z,48.73
2022-08-03T04:19:56.226Z,49.16
2022-08-03T04:25:01.072Z,48.81
2022-08-03T04:30:04.764Z,48.80
2022-08-03T04:35:09.762Z,49.44
2022-08-03T04:40:14.816Z,49.78
2022-08-03T04:45:18.024Z,48.83
2022-08-03T04:50:22.163Z,48.57
2022-08-03T04:55:39.642Z,48.42
2022-08-03T05:00:42.366Z,48.65
2022-08-03T05:05:50.673Z,48.38
2022-08-03T05:10:53.766Z,48.49
2022-08-03T05:15:56.650Z,48.65
2022-08-03T05:21:00.801Z,49.21
2022-08-03T05:26:03.751Z,49.66
2022-08-03T05:31:06.512Z,50.11
2022-08-03T05:36:10.774Z,50.16
2022-08-03T05:41:22.065Z,50.47
2022-08-03T05:46:26.745Z,50.59
2022-08-03T05:51:31.499Z,50.96
2022-08-03T05:56:34.278Z,50.83
2022-08-03T06:01:37.040Z,50.71
2022-08-03T06:06:41.245Z,50.39
2022-08-03T06:11:44.005Z,50.78
2022-08-03T06:16:48.846Z,51.16
2022-08-03T06:21:53.036Z,51.27
2022-08-03T06:26:56.064Z,50.65
2022-08-03T06:31:58.848Z,51.12
2022-08-03T06:37:02.905Z,51.30
2022-08-03T06:42:06.131Z,51.33
2022-08-03T06:47:15.373Z,51.11
2022-08-03T06:52:37.772Z,50.91
2022-08-03T06:57:41.342Z,51.35
2022-08-03T07:02:44.133Z,50.59
2022-08-03T07:07:49.181Z,50.29
2022-08-03T07:12:55.927Z,49.84
2022-08-03T07:17:59.709Z,49.50
2022-08-03T07:23:04.126Z,49.71
2022-08-03T07:28:07.172Z,49.97
2022-08-03T07:33:09.873Z,49.25
2022-08-03T07:38:14.022Z,49.37
2022-08-03T07:43:17.607Z,47.87
2022-08-03T07:48:20.680Z,48.17
2022-08-03T07:53:24.759Z,48.02
2022-08-03T07:58:27.488Z,47.89
2022-08-03T08:03:30.248Z,47.00
2022-08-03T08:08:55.187Z,46.36
2022-08-03T08:13:58.001Z,46.69
2022-08-03T08:19:02.476Z,46.77
2022-08-03T08:24:11.037Z,46.92
2022-08-03T08:29:23.122Z,46.37
2022-08-03T08:34:25.916Z,45.33
2022-08-03T08:39:30.252Z,45.20
2022-08-03T08:44:33.007Z,45.56
2022-08-03T08:49:36.558Z,45.22
2022-08-03T08:54:42.788Z,45.72
2022-08-03T08:59:48.514Z,45.76
2022-08-03T09:04:52.473Z,46.02
2022-08-03T09:10:08.317Z,45.64
2022-08-03T09:15:23.055Z,45.98
2022-08-03T09:20:26.888Z,46.16
2022-08-03T09:25:32.258Z,46.42
2022-08-03T09:30:35.448Z,46.63
2022-08-03T09:35:53.671Z,46.43
2022-08-03T09:41:00.802Z,46.68
2022-08-03T09:46:04.102Z,46.70
2022-08-03T09:51:12.878Z,46.78
2022-08-03T09:56:36.263Z,46.68
2022-08-03T10:01:41.646Z,46.66
2022-08-03T10:06:45.064Z,46.73
2022-08-03T10:11:49.452Z,46.94
2022-08-03T10:16:52.281Z,47.08
2022-08-03T10:21:56.790Z,47.03
2022-08-03T10:27:03.409Z,47.04
2022-08-03T10:32:09.795Z,46.92
2022-08-03T10:37:13.251Z,46.95
2022-08-03T10:42:17.512Z,47.18
2022-08-03T10:47:20.737Z,46.93
2022-08-03T10:52:31.809Z,47.18
2022-08-03T10:57:49.775Z,46.99
2022-08-03T11:03:16.652Z,47.09
2022-08-03T11:08:20.733Z,47.23
2022-08-03T11:13:25.762Z,47.05
2022-08-03T11:18:28.828Z,46.98
2022-08-03T11:24:05.421Z,46.92
2022-08-03T11:29:29.262Z,46.91
2022-08-03T11:34:32.222Z,46.83
2022-08-03T11:39:43.499Z,46.75
2022-08-03T11:44:47.801Z,47.06
2022-08-03T11:49:51.439Z,46.68
2022-08-03T11:54:57.005Z,46.79
2022-08-03T12:00:01.389Z,47.32
2022-08-03T12:05:04.524Z,47.49
2022-08-03T12:10:08.055Z,47.38
2022-08-03T12:15:12.686Z,46.96
2022-08-03T12:20:21.820Z,47.05
2022-08-03T12:25:39.485Z,47.11
2022-08-03T12:30:44.491Z,46.96
2022-08-03T12:35:52.306Z,47.02
2022-08-03T12:41:02.749Z,46.86
2022-08-03T12:46:14.600Z,46.92
2022-08-03T12:51:17.373Z,47.26
2022-08-03T12:56:20.629Z,47.02
2022-08-03T13:01:27.818Z,47.47
2022-08-03T13:06:30.864Z,48.04
2022-08-03T13:11:55.929Z,47.95
2022-08-03T13:16:58.164Z,48.02
2022-08-03T13:22:04.596Z,47.81
2022-08-03T13:28:12.402Z,47.90
2022-08-03T13:32:32.040Z,47.92
2022-08-03T13:37:35.083Z,47.92
2022-08-03T13:42:38.928Z,48.06
2022-08-03T13:47:43.339Z,47.94
2022-08-03T13:52:46.308Z,48.21
2022-08-03T13:58:02.454Z,48.11
2022-08-03T14:03:14.860Z,48.02
2022-08-03T14:08:18.225Z,47.83
2022-08-03T14:13:20.963Z,47.73
2022-08-03T14:18:28.713Z,48.02
2022-08-03T14:23:37.434Z,47.83
2022-08-03T14:28:40.178Z,47.92
2022-08-03T14:33:44.296Z,47.99
2022-08-03T14:38:47.803Z,48.14
2022-08-03T14:44:01.707Z,48.09
2022-08-03T14:50:31.339Z,47.93
2022-08-03T14:54:30.915Z,47.81
2022-08-03T14:59:55.538Z,47.75
2022-08-03T15:04:57.804Z,47.67
2022-08-03T15:10:00.513Z,47.62
2022-08-03T15:15:05.836Z,47.59
2022-08-03T15:20:28.872Z,47.52
2022-08-03T15:26:29.454Z,47.52
2022-08-03T15:30:57.022Z,47.61
2022-08-03T15:36:01.239Z,47.28
2022-08-03T15:41:04.012Z,47.54
2022-08-03T15:46:28.811Z,47.29
2022-08-03T15:51:30.864Z,47.61
2022-08-03T15:56:33.726Z,47.43
2022-08-03T16:01:36.572Z,47.75
2022-08-03T16:06:40.749Z,47.24
2022-08-03T16:11:43.570Z,47.61
2022-08-03T16:16:46.724Z,47.87
2022-08-03T16:21:51.064Z,48.76
2022-08-03T16:26:54.179Z,48.89
2022-08-03T16:31:57.009Z,48.66
2022-08-03T16:37:16.546Z,48.89
2022-08-03T16:42:23.902Z,48.84
2022-08-03T16:47:26.714Z,48.90
2022-08-03T16:52:30.788Z,48.88
2022-08-03T16:57:58.650Z,49.10
2022-08-03T17:02:59.619Z,48.96
2022-08-03T17:08:10.555Z,48.91
2022-08-03T17:13:21.561Z,49.05
2022-08-03T17:18:25.422Z,48.74
2022-08-03T17:23:37.355Z,48.67
2022-08-03T17:28:52.153Z,48.52
2022-08-03T17:34:01.808Z,48.65
2022-08-03T17:39:06.592Z,47.93
2022-08-03T17:44:15.546Z,48.41
2022-08-03T17:49:25.064Z,48.23
2022-08-03T17:54:32.170Z,48.33
2022-08-03T17:59:51.705Z,48.58
2022-08-03T18:05:00.491Z,48.85
2022-08-03T18:10:11.229Z,48.71
2022-08-03T18:15:22.089Z,48.25
2022-08-03T18:20:32.912Z,48.65
2022-08-03T18:25:50.869Z,48.61
2022-08-03T18:30:59.092Z,48.53
2022-08-03T18:36:01.947Z,48.23
2022-08-03T18:41:14.573Z,48.39
2022-08-03T18:46:28.446Z,49.00
2022-08-03T18:51:43.474Z,48.31
2022-08-03T18:56:53.697Z,48.39
2022-08-03T19:02:00.744Z,48.42
2022-08-03T19:07:08.586Z,48.49
2022-08-03T19:12:28.111Z,48.25
2022-08-03T19:17:38.466Z,48.17
2022-08-03T19:22:45.916Z,48.01
2022-08-03T19:27:50.256Z,47.88
2022-08-03T19:32:52.986Z,48.33
2022-08-03T19:37:55.857Z,48.21
2022-08-03T19:43:05.795Z,48.17
2022-08-03T19:48:10.450Z,48.17
2022-08-03T19:53:13.371Z,48.38
2022-08-03T19:58:24.431Z,48.29
2022-08-03T20:03:43.486Z,47.97
2022-08-03T20:08:51.615Z,47.54
2022-08-03T20:13:56.299Z,47.50
2022-08-03T20:18:59.630Z,47.47
2022-08-03T20:24:23.709Z,46.95
2022-08-03T20:29:42.744Z,46.89
2022-08-03T20:34:53.465Z,44.93
2022-08-03T20:39:56.313Z,44.96
2022-08-03T20:45:06.019Z,45.69
2022-08-03T20:50:15.853Z,46.51
2022-08-03T20:55:20.380Z,46.25
2022-08-03T21:00:43.685Z,46.15
2022-08-03T21:05:51.074Z,46.23
2022-08-03T21:11:12.517Z,45.83
2022-08-03T21:16:16.851Z,45.85
2022-08-03T21:21:20.988Z,45.78
2022-08-03T21:26:25.182Z,45.57
2022-08-03T21:31:29.246Z,44.04
2022-08-03T21:36:33.932Z,43.99
2022-08-03T21:41:37.351Z,44.71
2022-08-03T21:46:41.814Z,45.37
2022-08-03T21:51:44.909Z,45.80
2022-08-03T21:56:48.422Z,47.11
2022-08-03T22:01:55.466Z,46.68
2022-08-03T22:07:01.657Z,47.00
2022-08-03T22:12:05.051Z,46.91
2022-08-03T22:17:09.177Z,46.81
2022-08-03T22:22:14.553Z,46.90
2022-08-03T22:27:33.209Z,46.55
2022-08-03T22:32:37.512Z,44.93
2022-08-03T22:37:41.023Z,44.79
2022-08-03T22:42:45.608Z,45.15
2022-08-03T22:47:49.759Z,44.70
2022-08-03T22:52:52.637Z,44.17
2022-08-03T22:57:56.526Z,44.26
2022-08-03T23:03:01.260Z,44.52
2022-08-03T23:08:06.015Z,44.89
2022-08-03T23:13:08.750Z,45.24
2022-08-03T23:18:12.844Z,44.97
2022-08-03T23:23:15.551Z,45.07
2022-08-03T23:28:22.599Z,44.81
2022-08-03T23:33:26.717Z,44.47
2022-08-03T23:38:30.310Z,44.07
2022-08-03T23:43:44.863Z,44.80
2022-08-03T23:48:57.786Z,44.93
2022-08-03T23:54:04.660Z,45.26
2022-08-03T23:59:10.208Z,45.42
